sensor_id;sensor_type;location;lat;lon;timestamp;pressure;altitude;pressure_sealevel;temperature;humidity
6136;BME280;24008;42.664;23.372;2023-09-18T00:01:14;95215.81;;;16.75;100.00
6136;BME280;24008;42.664;23.372;2023-09-18T00:03:42;95013.16;;;15.54;100.00
6136;BME280;24008;42.664;23.372;2023-09-18T00:06:09;95257.53;;;16.95;100.00
6136;BME280;24008;42.664;23.372;2023-09-18T00:08:39;95217.03;;;16.96;100.00
6136;BME280;24008;42.664;23.372;2023-09-18T00:11:06;95173.56;;;16.68;100.00
6136;BME280;24008;42.664;23.372;2023-09-18T00:13:33;95179.84;;;16.74;100.00
6136;BME280;24008;42.664;23.372;2023-09-18T00:16:00;95188.22;;;16.76;100.00
6136;BME280;24008;42.664;23.372;2023-09-18T00:18:28;95219.78;;;16.94;100.00
6136;BME280;24008;42.664;23.372;2023-09-18T00:20:56;95185.19;;;16.72;100.00
6136;BME280;24008;42.664;23.372;2023-09-18T00:23:23;95216.91;;;16.89;100.00
6136;BME280;24008;42.664;23.372;2023-09-18T00:25:49;95225.63;;;16.88;100.00
6136;BME280;24008;42.664;23.372;2023-09-18T00:28:16;95199.22;;;16.78;100.00
6136;BME280;24008;42.664;23.372;2023-09-18T00:30:47;95220.09;;;16.91;100.00
6136;BME280;24008;42.664;23.372;2023-09-18T00:33:15;95198.25;;;16.71;100.00
6136;BME280;24008;42.664;23.372;2023-09-18T00:35:45;95122.72;;;16.30;100.00
6136;BME280;24008;42.664;23.372;2023-09-18T00:38:14;95222.53;;;16.92;100.00
6136;BME280;24008;42.664;23.372;2023-09-18T00:40:40;95118.34;;;16.30;100.00
6136;BME280;24008;42.664;23.372;2023-09-18T00:43:07;95225.25;;;16.99;100.00
6136;BME280;24008;42.664;23.372;2023-09-18T00:45:38;95026.81;;;15.79;100.00
6136;BME280;24008;42.664;23.372;2023-09-18T00:48:06;95238.28;;;17.06;100.00
6136;BME280;24008;42.664;23.372;2023-09-18T00:50:33;95204.16;;;16.87;100.00
6136;BME280;24008;42.664;23.372;2023-09-18T00:53:00;95231.03;;;17.09;100.00
6136;BME280;24008;42.664;23.372;2023-09-18T00:55:30;95174.69;;;16.74;100.00
6136;BME280;24008;42.664;23.372;2023-09-18T00:57:57;95229.72;;;17.13;100.00
6136;BME280;24008;42.664;23.372;2023-09-18T01:00:25;95123.28;;;16.48;100.00
6136;BME280;24008;42.664;23.372;2023-09-18T01:02:52;95235.34;;;17.17;100.00
6136;BME280;24008;42.664;23.372;2023-09-18T01:05:18;95222.16;;;17.04;100.00
6136;BME280;24008;42.664;23.372;2023-09-18T01:07:45;95243.25;;;17.15;100.00
6136;BME280;24008;42.664;23.372;2023-09-18T01:10:12;95238.88;;;17.16;100.00
6136;BME280;24008;42.664;23.372;2023-09-18T01:12:45;95250.84;;;17.17;100.00
6136;BME280;24008;42.664;23.372;2023-09-18T01:15:17;95249.22;;;17.16;100.00
6136;BME280;24008;42.664;23.372;2023-09-18T01:17:44;95216.22;;;16.95;100.00
6136;BME280;24008;42.664;23.372;2023-09-18T01:20:11;95212.84;;;16.95;100.00
6136;BME280;24008;42.664;23.372;2023-09-18T01:22:40;95240.53;;;17.09;100.00
6136;BME280;24008;42.664;23.372;2023-09-18T01:25:07;95219.78;;;16.94;100.00
6136;BME280;24008;42.664;23.372;2023-09-18T01:27:34;95162.28;;;16.61;100.00
6136;BME280;24008;42.664;23.372;2023-09-18T01:30:01;95217.34;;;16.92;100.00
6136;BME280;24008;42.664;23.372;2023-09-18T01:32:30;95241.03;;;17.04;100.00
6136;BME280;24008;42.664;23.372;2023-09-18T01:35:00;95234.63;;;17.00;100.00
6136;BME280;24008;42.664;23.372;2023-09-18T01:37:29;95234.94;;;16.97;100.00
6136;BME280;24008;42.664;23.372;2023-09-18T01:39:58;95231.72;;;16.95;100.00
6136;BME280;24008;42.664;23.372;2023-09-18T01:42:26;95235.09;;;16.96;100.00
6136;BME280;24008;42.664;23.372;2023-09-18T01:44:54;95234.13;;;16.97;100.00
6136;BME280;24008;42.664;23.372;2023-09-18T01:47:21;95244.94;;;17.00;100.00
6136;BME280;24008;42.664;23.372;2023-09-18T01:49:49;95212.72;;;16.80;100.00
6136;BME280;24008;42.664;23.372;2023-09-18T01:52:16;95207.91;;;16.77;100.00
6136;BME280;24008;42.664;23.372;2023-09-18T01:54:43;95231.13;;;16.85;100.00
6136;BME280;24008;42.664;23.372;2023-09-18T01:57:11;95239.13;;;16.98;100.00
6136;BME280;24008;42.664;23.372;2023-09-18T01:59:38;95224.34;;;16.84;100.00
6136;BME280;24008;42.664;23.372;2023-09-18T02:02:07;95140.28;;;16.34;100.00
6136;BME280;24008;42.664;23.372;2023-09-18T02:04:35;95248.50;;;16.99;100.00
6136;BME280;24008;42.664;23.372;2023-09-18T02:07:02;95231.91;;;16.85;100.00
6136;BME280;24008;42.664;23.372;2023-09-18T02:09:29;95197.75;;;16.59;100.00
6136;BME280;24008;42.664;23.372;2023-09-18T02:11:56;95181.31;;;16.60;100.00
6136;BME280;24008;42.664;23.372;2023-09-18T02:14:24;95241.84;;;17.05;100.00
6136;BME280;24008;42.664;23.372;2023-09-18T02:16:51;95249.59;;;17.05;100.00
6136;BME280;24008;42.664;23.372;2023-09-18T02:19:19;95214.00;;;16.84;100.00
6136;BME280;24008;42.664;23.372;2023-09-18T02:21:46;95188.59;;;16.65;100.00
6136;BME280;24008;42.664;23.372;2023-09-18T02:24:13;95198.56;;;16.68;100.00
6136;BME280;24008;42.664;23.372;2023-09-18T02:26:40;95226.59;;;16.79;100.00
6136;BME280;24008;42.664;23.372;2023-09-18T02:29:08;95252.69;;;16.92;100.00
6136;BME280;24008;42.664;23.372;2023-09-18T02:31:38;95252.41;;;16.87;100.00
6136;BME280;24008;42.664;23.372;2023-09-18T02:34:05;95201.47;;;16.56;100.00
6136;BME280;24008;42.664;23.372;2023-09-18T02:36:32;95254.22;;;16.78;100.00
6136;BME280;24008;42.664;23.372;2023-09-18T02:38:59;95249.53;;;16.74;100.00
6136;BME280;24008;42.664;23.372;2023-09-18T02:41:26;95248.25;;;16.70;100.00
6136;BME280;24008;42.664;23.372;2023-09-18T02:43:53;95221.19;;;16.49;100.00
6136;BME280;24008;42.664;23.372;2023-09-18T02:46:19;95250.72;;;16.63;100.00
6136;BME280;24008;42.664;23.372;2023-09-18T02:48:47;95221.81;;;16.43;100.00
6136;BME280;24008;42.664;23.372;2023-09-18T02:51:14;95248.91;;;16.47;100.00
6136;BME280;24008;42.664;23.372;2023-09-18T02:53:42;95244.75;;;16.38;100.00
6136;BME280;24008;42.664;23.372;2023-09-18T02:56:08;95243.78;;;16.31;100.00
6136;BME280;24008;42.664;23.372;2023-09-18T02:58:35;95241.19;;;16.31;100.00
6136;BME280;24008;42.664;23.372;2023-09-18T03:01:02;95219.00;;;16.06;100.00
6136;BME280;24008;42.664;23.372;2023-09-18T03:03:30;95257.34;;;16.25;100.00
6136;BME280;24008;42.664;23.372;2023-09-18T03:06:02;95210.44;;;15.97;100.00
6136;BME280;24008;42.664;23.372;2023-09-18T03:08:28;95254.44;;;16.28;100.00
6136;BME280;24008;42.664;23.372;2023-09-18T03:10:55;95242.69;;;16.17;100.00
6136;BME280;24008;42.664;23.372;2023-09-18T03:13:22;95229.44;;;15.96;100.00
6136;BME280;24008;42.664;23.372;2023-09-18T03:15:49;95238.16;;;16.11;100.00
6136;BME280;24008;42.664;23.372;2023-09-18T03:18:16;95152.00;;;15.57;100.00
6136;BME280;24008;42.664;23.372;2023-09-18T03:20:43;95251.22;;;16.18;100.00
6136;BME280;24008;42.664;23.372;2023-09-18T03:23:12;95250.59;;;16.16;100.00
6136;BME280;24008;42.664;23.372;2023-09-18T03:25:39;95170.84;;;15.66;100.00
6136;BME280;24008;42.664;23.372;2023-09-18T03:28:06;95243.47;;;16.10;100.00
6136;BME280;24008;42.664;23.372;2023-09-18T03:30:33;95247.66;;;16.11;100.00
6136;BME280;24008;42.664;23.372;2023-09-18T03:32:59;95216.72;;;15.95;100.00
6136;BME280;24008;42.664;23.372;2023-09-18T03:35:28;95237.22;;;16.04;100.00
6136;BME280;24008;42.664;23.372;2023-09-18T03:37:55;95219.00;;;15.90;100.00
6136;BME280;24008;42.664;23.372;2023-09-18T03:40:23;95215.78;;;15.88;100.00
6136;BME280;24008;42.664;23.372;2023-09-18T03:42:50;95235.09;;;16.00;100.00
6136;BME280;24008;42.664;23.372;2023-09-18T03:45:16;95202.41;;;15.76;100.00
6136;BME280;24008;42.664;23.372;2023-09-18T03:47:44;95233.00;;;15.95;100.00
6136;BME280;24008;42.664;23.372;2023-09-18T03:50:11;95252.19;;;15.93;100.00
6136;BME280;24008;42.664;23.372;2023-09-18T03:52:39;95224.00;;;15.91;100.00
6136;BME280;24008;42.664;23.372;2023-09-18T03:55:06;95227.69;;;15.89;100.00
6136;BME280;24008;42.664;23.372;2023-09-18T03:57:34;95202.41;;;15.68;100.00
6136;BME280;24008;42.664;23.372;2023-09-18T04:00:02;95198.53;;;15.64;100.00
6136;BME280;24008;42.664;23.372;2023-09-18T04:02:30;95177.06;;;15.47;100.00
6136;BME280;24008;42.664;23.372;2023-09-18T04:04:56;95242.19;;;15.81;100.00
6136;BME280;24008;42.664;23.372;2023-09-18T04:07:23;95204.16;;;15.67;100.00
6136;BME280;24008;42.664;23.372;2023-09-18T04:09:50;95203.22;;;15.68;100.00
6136;BME280;24008;42.664;23.372;2023-09-18T04:12:17;95204.00;;;15.69;100.00
6136;BME280;24008;42.664;23.372;2023-09-18T04:14:45;95204.50;;;15.64;100.00
6136;BME280;24008;42.664;23.372;2023-09-18T04:17:12;95148.06;;;15.29;100.00
6136;BME280;24008;42.664;23.372;2023-09-18T04:19:39;95154.84;;;15.30;100.00
6136;BME280;24008;42.664;23.372;2023-09-18T04:22:06;95232.19;;;15.78;100.00
6136;BME280;24008;42.664;23.372;2023-09-18T04:24:33;95235.91;;;15.76;100.00
6136;BME280;24008;42.664;23.372;2023-09-18T04:27:00;95239.28;;;15.76;100.00
6136;BME280;24008;42.664;23.372;2023-09-18T04:29:27;95135.16;;;15.04;100.00
6136;BME280;24008;42.664;23.372;2023-09-18T04:31:56;95181.25;;;15.40;100.00
6136;BME280;24008;42.664;23.372;2023-09-18T04:34:23;95213.50;;;15.60;100.00
6136;BME280;24008;42.664;23.372;2023-09-18T04:36:50;95237.34;;;15.78;100.00
6136;BME280;24008;42.664;23.372;2023-09-18T04:39:16;95239.13;;;15.78;100.00
6136;BME280;24008;42.664;23.372;2023-09-18T04:41:45;95236.06;;;15.74;100.00
6136;BME280;24008;42.664;23.372;2023-09-18T04:44:11;95241.72;;;15.78;100.00
6136;BME280;24008;42.664;23.372;2023-09-18T04:46:39;95236.38;;;15.71;100.00
6136;BME280;24008;42.664;23.372;2023-09-18T04:49:09;95244.13;;;15.88;100.00
6136;BME280;24008;42.664;23.372;2023-09-18T04:51:37;95248.97;;;15.91;100.00
6136;BME280;24008;42.664;23.372;2023-09-18T04:54:05;95249.28;;;15.96;100.00
6136;BME280;24008;42.664;23.372;2023-09-18T04:56:32;95220.78;;;15.81;100.00
6136;BME280;24008;42.664;23.372;2023-09-18T04:58:58;95246.38;;;16.07;100.00
6136;BME280;24008;42.664;23.372;2023-09-18T05:01:25;95193.53;;;15.87;100.00
6136;BME280;24008;42.664;23.372;2023-09-18T05:03:52;95148.91;;;15.62;100.00
6136;BME280;24008;42.664;23.372;2023-09-18T05:06:20;95239.78;;;16.29;100.00
6136;BME280;24008;42.664;23.372;2023-09-18T05:08:47;95233.63;;;16.38;100.00
6136;BME280;24008;42.664;23.372;2023-09-18T05:11:14;95237.00;;;16.46;100.00
6136;BME280;24008;42.664;23.372;2023-09-18T05:13:42;95248.41;;;16.60;100.00
6136;BME280;24008;42.664;23.372;2023-09-18T05:16:08;95207.31;;;16.50;100.00
6136;BME280;24008;42.664;23.372;2023-09-18T05:18:35;94945.28;;;14.98;100.00
6136;BME280;24008;42.664;23.372;2023-09-18T05:21:03;95247.25;;;16.87;100.00
6136;BME280;24008;42.664;23.372;2023-09-18T05:23:32;95246.28;;;16.88;100.00
6136;BME280;24008;42.664;23.372;2023-09-18T05:25:59;95254.78;;;16.97;100.00
6136;BME280;24008;42.664;23.372;2023-09-18T05:28:26;95251.84;;;17.08;100.00
6136;BME280;24008;42.664;23.372;2023-09-18T05:30:53;95217.03;;;16.96;98.96
6136;BME280;24008;42.664;23.372;2023-09-18T05:33:20;95054.31;;;16.03;97.75
6136;BME280;24008;42.664;23.372;2023-09-18T05:35:47;95230.09;;;17.33;96.52
6136;BME280;24008;42.664;23.372;2023-09-18T05:38:14;95258.19;;;17.67;95.24
6136;BME280;24008;42.664;23.372;2023-09-18T05:40:44;95174.06;;;17.34;94.51
6136;BME280;24008;42.664;23.372;2023-09-18T05:43:12;95224.31;;;17.85;93.87
6136;BME280;24008;42.664;23.372;2023-09-18T05:45:39;95254.50;;;18.30;92.09
6136;BME280;24008;42.664;23.372;2023-09-18T05:48:06;95256.31;;;18.44;90.38
6136;BME280;24008;42.664;23.372;2023-09-18T05:50:33;95220.59;;;18.40;89.87
6136;BME280;24008;42.664;23.372;2023-09-18T05:53:01;95266.28;;;18.85;88.68
6136;BME280;24008;42.664;23.372;2023-09-18T05:55:29;95264.59;;;19.06;87.38
6136;BME280;24008;42.664;23.372;2023-09-18T05:57:57;95246.88;;;19.10;86.12
6136;BME280;24008;42.664;23.372;2023-09-18T06:00:25;95266.97;;;19.37;83.69
6136;BME280;24008;42.664;23.372;2023-09-18T06:02:52;95215.09;;;19.16;81.86
6136;BME280;24008;42.664;23.372;2023-09-18T06:05:19;95266.66;;;19.62;81.65
6136;BME280;24008;42.664;23.372;2023-09-18T06:07:47;95237.69;;;19.58;80.61
6136;BME280;24008;42.664;23.372;2023-09-18T06:10:15;95182.03;;;19.54;79.76
6136;BME280;24008;42.664;23.372;2023-09-18T06:12:43;95261.59;;;20.60;76.58
6136;BME280;24008;42.664;23.372;2023-09-18T06:15:11;95239.91;;;21.15;72.51
6136;BME280;24008;42.664;23.372;2023-09-18T06:17:39;95079.84;;;20.80;68.80
6136;BME280;24008;42.664;23.372;2023-09-18T06:20:07;95271.09;;;22.57;66.62
6136;BME280;24008;42.664;23.372;2023-09-18T06:22:36;95273.81;;;23.15;63.12
6136;BME280;24008;42.664;23.372;2023-09-18T06:25:04;95264.47;;;23.45;61.41
6136;BME280;24008;42.664;23.372;2023-09-18T06:27:31;95273.41;;;24.07;59.74
6136;BME280;24008;42.664;23.372;2023-09-18T06:29:59;95247.25;;;24.45;58.64
6136;BME280;24008;42.664;23.372;2023-09-18T06:32:28;95274.56;;;24.92;56.27
6136;BME280;24008;42.664;23.372;2023-09-18T06:34:54;95272.72;;;25.36;54.58
6136;BME280;24008;42.664;23.372;2023-09-18T06:37:23;95273.88;;;25.76;53.22
6136;BME280;24008;42.664;23.372;2023-09-18T06:39:52;95247.28;;;25.91;51.31
6136;BME280;24008;42.664;23.372;2023-09-18T06:42:19;95236.28;;;25.53;51.97
6136;BME280;24008;42.664;23.372;2023-09-18T06:44:45;95275.31;;;25.72;52.15
6136;BME280;24008;42.664;23.372;2023-09-18T06:47:12;95219.66;;;24.92;52.88
6136;BME280;24008;42.664;23.372;2023-09-18T06:49:41;95279.22;;;24.40;55.25
6136;BME280;24008;42.664;23.372;2023-09-18T06:52:08;95268.75;;;24.47;55.83
6136;BME280;24008;42.664;23.372;2023-09-18T06:54:35;95269.44;;;24.61;55.73
6136;BME280;24008;42.664;23.372;2023-09-18T06:57:03;95271.47;;;25.38;54.23
6136;BME280;24008;42.664;23.372;2023-09-18T06:59:30;95206.88;;;26.10;50.46
6136;BME280;24008;42.664;23.372;2023-09-18T07:02:00;95261.69;;;26.77;49.53
6136;BME280;24008;42.664;23.372;2023-09-18T07:04:27;95264.38;;;27.40;47.91
6136;BME280;24008;42.664;23.372;2023-09-18T07:06:55;95279.53;;;27.90;46.23
6136;BME280;24008;42.664;23.372;2023-09-18T07:09:22;95257.88;;;27.83;45.75
6136;BME280;24008;42.664;23.372;2023-09-18T07:11:50;95232.63;;;26.67;47.14
6136;BME280;24008;42.664;23.372;2023-09-18T07:14:17;95279.59;;;26.57;48.89
6136;BME280;24008;42.664;23.372;2023-09-18T07:16:44;95281.16;;;26.81;48.53
6136;BME280;24008;42.664;23.372;2023-09-18T07:19:10;95279.47;;;27.21;47.61
6136;BME280;24008;42.664;23.372;2023-09-18T07:21:42;95277.91;;;27.72;46.25
6136;BME280;24008;42.664;23.372;2023-09-18T07:24:10;95273.78;;;27.76;46.23
6136;BME280;24008;42.664;23.372;2023-09-18T07:26:44;95215.44;;;27.91;44.49
6136;BME280;24008;42.664;23.372;2023-09-18T07:29:11;95280.84;;;28.04;44.85
6136;BME280;24008;42.664;23.372;2023-09-18T07:31:38;95266.44;;;28.35;43.86
6136;BME280;24008;42.664;23.372;2023-09-18T07:34:05;95288.50;;;28.06;44.13
6136;BME280;24008;42.664;23.372;2023-09-18T07:36:33;95212.28;;;27.09;45.80
6136;BME280;24008;42.664;23.372;2023-09-18T07:38:59;95220.72;;;27.63;44.90
6136;BME280;24008;42.664;23.372;2023-09-18T07:41:28;95276.84;;;28.63;42.87
6136;BME280;24008;42.664;23.372;2023-09-18T07:43:54;95221.97;;;28.34;42.85
6136;BME280;24008;42.664;23.372;2023-09-18T07:46:23;95254.16;;;29.13;42.45
6136;BME280;24008;42.664;23.372;2023-09-18T07:48:50;95277.28;;;28.89;42.79
6136;BME280;24008;42.664;23.372;2023-09-18T07:51:17;95283.78;;;29.20;41.90
6136;BME280;24008;42.664;23.372;2023-09-18T07:53:43;95276.94;;;29.41;41.09
6136;BME280;24008;42.664;23.372;2023-09-18T07:56:10;95278.63;;;29.30;41.05
6136;BME280;24008;42.664;23.372;2023-09-18T07:58:38;95278.59;;;29.08;41.46
6136;BME280;24008;42.664;23.372;2023-09-18T08:01:06;95229.56;;;29.02;41.26
6136;BME280;24008;42.664;23.372;2023-09-18T08:03:34;95273.31;;;29.47;40.99
6136;BME280;24008;42.664;23.372;2023-09-18T08:06:01;95254.47;;;29.55;40.55
6136;BME280;24008;42.664;23.372;2023-09-18T08:08:30;95269.53;;;29.37;40.59
6136;BME280;24008;42.664;23.372;2023-09-18T08:11:00;95222.47;;;29.02;41.19
6136;BME280;24008;42.664;23.372;2023-09-18T08:13:27;95164.00;;;29.00;40.94
6136;BME280;24008;42.664;23.372;2023-09-18T08:15:58;95271.19;;;30.46;39.13
6136;BME280;24008;42.664;23.372;2023-09-18T08:18:25;95255.22;;;30.26;38.90
6136;BME280;24008;42.664;23.372;2023-09-18T08:20:54;95258.47;;;30.38;38.53
6136;BME280;24008;42.664;23.372;2023-09-18T08:23:23;95249.88;;;30.53;38.30
6136;BME280;24008;42.664;23.372;2023-09-18T08:25:49;95268.22;;;30.64;39.00
6136;BME280;24008;42.664;23.372;2023-09-18T08:28:17;95271.25;;;31.25;37.93
6136;BME280;24008;42.664;23.372;2023-09-18T08:30:43;95210.31;;;30.95;36.87
6136;BME280;24008;42.664;23.372;2023-09-18T08:33:14;95264.72;;;30.96;37.42
6136;BME280;24008;42.664;23.372;2023-09-18T08:35:40;95261.00;;;30.92;37.48
6136;BME280;24008;42.664;23.372;2023-09-18T08:38:07;95251.50;;;30.91;37.20
6136;BME280;24008;42.664;23.372;2023-09-18T08:40:34;95266.53;;;30.90;38.05
6136;BME280;24008;42.664;23.372;2023-09-18T08:43:01;95234.56;;;30.50;37.75
6136;BME280;24008;42.664;23.372;2023-09-18T08:45:35;95230.44;;;30.27;37.76
6136;BME280;24008;42.664;23.372;2023-09-18T08:48:02;95245.06;;;30.44;38.69
6136;BME280;24008;42.664;23.372;2023-09-18T08:50:31;95221.69;;;30.95;37.25
6136;BME280;24008;42.664;23.372;2023-09-18T08:52:59;95220.66;;;30.54;37.34
6136;BME280;24008;42.664;23.372;2023-09-18T08:55:27;95253.19;;;30.38;38.15
6136;BME280;24008;42.664;23.372;2023-09-18T08:57:55;95248.44;;;30.08;38.46
6136;BME280;24008;42.664;23.372;2023-09-18T09:00:24;95234.78;;;30.43;38.22
6136;BME280;24008;42.664;23.372;2023-09-18T09:02:51;95247.88;;;31.02;37.63
6136;BME280;24008;42.664;23.372;2023-09-18T09:05:19;95213.16;;;31.30;35.91
6136;BME280;24008;42.664;23.372;2023-09-18T09:07:48;95186.03;;;30.51;36.63
6136;BME280;24008;42.664;23.372;2023-09-18T09:10:15;95188.47;;;30.57;36.54
6136;BME280;24008;42.664;23.372;2023-09-18T09:12:50;95240.59;;;30.77;37.25
6136;BME280;24008;42.664;23.372;2023-09-18T09:15:19;95241.53;;;31.03;37.31
6136;BME280;24008;42.664;23.372;2023-09-18T09:17:45;95240.75;;;31.07;36.33
6136;BME280;24008;42.664;23.372;2023-09-18T09:20:13;95246.38;;;31.16;36.44
6136;BME280;24008;42.664;23.372;2023-09-18T09:22:41;95224.81;;;30.87;37.02
6136;BME280;24008;42.664;23.372;2023-09-18T09:25:26;95232.47;;;31.41;35.52
6136;BME280;24008;42.664;23.372;2023-09-18T09:27:54;95235.75;;;31.63;35.06
6136;BME280;24008;42.664;23.372;2023-09-18T09:30:22;95227.06;;;31.73;34.93
6136;BME280;24008;42.664;23.372;2023-09-18T09:32:50;95232.66;;;30.77;35.88
6136;BME280;24008;42.664;23.372;2023-09-18T09:35:25;95227.00;;;30.58;36.33
6136;BME280;24008;42.664;23.372;2023-09-18T09:37:54;95230.19;;;30.33;35.98
6136;BME280;24008;42.664;23.372;2023-09-18T09:40:25;95194.84;;;29.27;37.91
6136;BME280;24008;42.664;23.372;2023-09-18T09:42:52;95203.00;;;29.69;37.47
6136;BME280;24008;42.664;23.372;2023-09-18T09:45:26;95223.19;;;30.12;36.75
6136;BME280;24008;42.664;23.372;2023-09-18T09:47:54;95177.31;;;29.86;36.54
6136;BME280;24008;42.664;23.372;2023-09-18T09:50:21;95212.41;;;29.65;37.03
6136;BME280;24008;42.664;23.372;2023-09-18T09:52:49;95212.25;;;29.98;36.91
6136;BME280;24008;42.664;23.372;2023-09-18T09:55:26;95215.56;;;30.85;36.33
6136;BME280;24008;42.664;23.372;2023-09-18T09:57:55;95033.44;;;29.90;35.24
6136;BME280;24008;42.664;23.372;2023-09-18T10:00:25;95202.88;;;30.13;36.01
6136;BME280;24008;42.664;23.372;2023-09-18T10:02:59;95118.06;;;28.14;38.48
6136;BME280;24008;42.664;23.372;2023-09-18T10:05:29;95198.34;;;27.88;40.58
6136;BME280;24008;42.664;23.372;2023-09-18T10:07:57;95207.13;;;28.11;40.55
6136;BME280;24008;42.664;23.372;2023-09-18T10:10:33;95205.53;;;28.60;39.65
6136;BME280;24008;42.664;23.372;2023-09-18T10:13:09;95063.00;;;28.41;38.02
6136;BME280;24008;42.664;23.372;2023-09-18T10:15:37;94953.47;;;28.30;37.39
6136;BME280;24008;42.664;23.372;2023-09-18T10:18:07;95177.69;;;30.27;36.20
6136;BME280;24008;42.664;23.372;2023-09-18T10:20:40;95200.66;;;30.68;35.60
6136;BME280;24008;42.664;23.372;2023-09-18T10:23:15;95192.69;;;30.58;35.76
6136;BME280;24008;42.664;23.372;2023-09-18T10:25:52;95155.53;;;30.65;35.35
6136;BME280;24008;42.664;23.372;2023-09-18T10:28:23;95193.56;;;31.21;34.59
6136;BME280;24008;42.664;23.372;2023-09-18T10:30:52;95167.97;;;31.22;34.69
6136;BME280;24008;42.664;23.372;2023-09-18T10:33:19;95194.66;;;31.25;34.43
6136;BME280;24008;42.664;23.372;2023-09-18T10:35:47;95183.72;;;30.59;35.04
6136;BME280;24008;42.664;23.372;2023-09-18T10:38:16;95171.78;;;30.15;35.26
6136;BME280;24008;42.664;23.372;2023-09-18T10:40:43;95174.44;;;30.15;35.66
6136;BME280;24008;42.664;23.372;2023-09-18T10:43:11;95094.09;;;29.36;35.52
6136;BME280;24008;42.664;23.372;2023-09-18T10:45:43;95147.91;;;29.67;35.71
6136;BME280;24008;42.664;23.372;2023-09-18T10:48:11;95166.63;;;29.44;36.20
6136;BME280;24008;42.664;23.372;2023-09-18T10:50:42;95155.94;;;28.68;37.16
6136;BME280;24008;42.664;23.372;2023-09-18T10:53:09;95138.97;;;28.21;38.06
6136;BME280;24008;42.664;23.372;2023-09-18T10:55:35;95152.31;;;28.03;38.65
6136;BME280;24008;42.664;23.372;2023-09-18T10:58:03;95148.66;;;27.87;39.12
6136;BME280;24008;42.664;23.372;2023-09-18T11:00:32;95142.59;;;28.03;39.53
6136;BME280;24008;42.664;23.372;2023-09-18T11:03:15;95147.59;;;28.05;39.17
6136;BME280;24008;42.664;23.372;2023-09-18T11:05:44;95113.75;;;27.58;39.52
6136;BME280;24008;42.664;23.372;2023-09-18T11:08:25;95119.19;;;27.40;40.05
6136;BME280;24008;42.664;23.372;2023-09-18T11:10:58;95108.19;;;26.86;40.49
6136;BME280;24008;42.664;23.372;2023-09-18T11:13:30;95133.44;;;26.64;41.58
6136;BME280;24008;42.664;23.372;2023-09-18T11:16:03;95056.88;;;25.92;41.73
6136;BME280;24008;42.664;23.372;2023-09-18T11:18:39;95113.59;;;26.21;42.40
6136;BME280;24008;42.664;23.372;2023-09-18T11:21:07;95111.75;;;26.22;42.59
6136;BME280;24008;42.664;23.372;2023-09-18T11:23:35;95122.97;;;26.29;42.69
6136;BME280;24008;42.664;23.372;2023-09-18T11:26:04;95126.00;;;26.02;42.58
6136;BME280;24008;42.664;23.372;2023-09-18T11:28:31;95120.38;;;25.75;42.89
6136;BME280;24008;42.664;23.372;2023-09-18T11:30:59;95110.03;;;25.39;44.20
6136;BME280;24008;42.664;23.372;2023-09-18T11:33:35;95105.13;;;25.31;44.70
6136;BME280;24008;42.664;23.372;2023-09-18T11:36:04;95075.28;;;25.20;44.21
6136;BME280;24008;42.664;23.372;2023-09-18T11:38:33;95074.31;;;25.33;44.18
6136;BME280;24008;42.664;23.372;2023-09-18T11:41:14;95096.00;;;25.63;43.83
6136;BME280;24008;42.664;23.372;2023-09-18T11:43:46;95097.19;;;25.91;43.41
6136;BME280;24008;42.664;23.372;2023-09-18T11:46:18;95105.13;;;25.72;42.78
6136;BME280;24008;42.664;23.372;2023-09-18T11:48:48;95095.44;;;25.61;43.75
6136;BME280;24008;42.664;23.372;2023-09-18T11:51:22;95094.75;;;25.66;43.48
6136;BME280;24008;42.664;23.372;2023-09-18T11:53:54;95075.06;;;25.63;43.34
6136;BME280;24008;42.664;23.372;2023-09-18T11:56:22;95088.09;;;25.81;43.14
6136;BME280;24008;42.664;23.372;2023-09-18T11:58:49;95085.91;;;26.02;42.99
6136;BME280;24008;42.664;23.372;2023-09-18T12:01:17;95091.59;;;25.87;42.92
6136;BME280;24008;42.664;23.372;2023-09-18T12:03:44;95026.19;;;25.45;43.33
6136;BME280;24008;42.664;23.372;2023-09-18T12:06:15;95057.22;;;25.72;43.61
6136;BME280;24008;42.664;23.372;2023-09-18T12:08:43;95057.91;;;25.91;43.91
6136;BME280;24008;42.664;23.372;2023-09-18T12:11:12;95064.50;;;25.93;44.28
6136;BME280;24008;42.664;23.372;2023-09-18T12:13:42;95075.66;;;25.77;44.47
6136;BME280;24008;42.664;23.372;2023-09-18T12:16:09;95083.50;;;25.65;44.97
6136;BME280;24008;42.664;23.372;2023-09-18T12:18:37;95091.84;;;25.44;45.80
6136;BME280;24008;42.664;23.372;2023-09-18T12:21:15;95068.88;;;25.16;45.96
6136;BME280;24008;42.664;23.372;2023-09-18T12:23:44;95062.28;;;25.13;46.19
6136;BME280;24008;42.664;23.372;2023-09-18T12:26:12;95071.09;;;25.31;45.79
6136;BME280;24008;42.664;23.372;2023-09-18T12:28:39;95069.53;;;25.41;45.90
6136;BME280;24008;42.664;23.372;2023-09-18T12:31:10;95078.44;;;25.52;45.69
6136;BME280;24008;42.664;23.372;2023-09-18T12:33:38;95070.47;;;25.47;45.43
6136;BME280;24008;42.664;23.372;2023-09-18T12:36:06;95088.84;;;25.29;45.38
6136;BME280;24008;42.664;23.372;2023-09-18T12:38:35;95058.81;;;25.01;46.50
6136;BME280;24008;42.664;23.372;2023-09-18T12:41:03;95071.59;;;24.91;46.37
6136;BME280;24008;42.664;23.372;2023-09-18T12:43:37;95055.09;;;24.61;47.51
6136;BME280;24008;42.664;23.372;2023-09-18T12:46:05;94876.97;;;23.43;48.01
6136;BME280;24008;42.664;23.372;2023-09-18T12:48:37;95063.44;;;24.69;47.39
6136;BME280;24008;42.664;23.372;2023-09-18T12:51:04;95064.94;;;24.77;47.54
6136;BME280;24008;42.664;23.372;2023-09-18T12:53:32;95044.13;;;24.70;47.24
6136;BME280;24008;42.664;23.372;2023-09-18T12:56:11;95029.84;;;24.55;46.79
6136;BME280;24008;42.664;23.372;2023-09-18T12:58:38;95031.88;;;24.53;47.27
6136;BME280;24008;42.664;23.372;2023-09-18T13:01:06;95046.16;;;24.68;47.64